Time;durP1;ratioP1;P1;durP2;ratioP2;P2;SDS_P1;SDS_P2;PMS_P1;PMS_P2;Temp;Humidity;BMP_temperature;BMP_pressure;BME280_temperature;BME280_humidity;BME280_pressure;Samples;Min_cycle;Max_cycle;Signal;HPM_P1;HPM_P2
2021/05/02 07:06:54;;;;;;;5.57;5.07;;;;;;;8.26;84.75;95350.28;4698001;30;20268;-85
2021/05/02 07:12:44;;;;;;;6.17;5.63;;;;;;;8.26;84.93;95352.84;4713972;30;20826;-84
2021/05/02 07:15:14;;;;;;;6.07;5.57;;;;;;;8.16;84.78;95355.59;4716906;30;20213;-83
2021/05/02 10:55:56;;;;;;;11.43;10.43;;;;;;;9.66;82.20;95582.03;4697654;30;20267;-81
2021/05/02 10:58:24;;;;;;;13.80;12.60;;;;;;;9.83;81.83;95587.88;4704865;30;20241;-84
2021/05/02 11:07:36;;;;;;;12.67;11.57;;;;;;;10.15;79.30;95591.19;4696527;30;20247;-79
2021/05/02 11:37:46;;;;;;;14.87;13.50;;;;;;;10.22;77.63;95604.97;4684878;30;20206;-84
2021/05/02 11:43:35;;;;;;;16.10;14.70;;;;;;;9.87;79.58;95614.06;4736665;29;20287;-84
2021/05/02 11:46:04;;;;;;;17.33;15.73;;;;;;;9.78;81.15;95608.19;4791504;30;20210;-84
2021/05/02 11:48:31;;;;;;;16.37;14.80;;;;;;;9.60;78.93;95616.16;4791065;30;20298;-84
2021/05/02 11:50:59;;;;;;;16.77;15.23;;;;;;;9.67;77.70;95611.94;4788244;30;20301;-85
2021/05/02 11:53:43;;;;;;;14.50;13.20;;;;;;;9.63;76.44;95613.22;4786103;30;20237;-85
2021/05/02 11:56:15;;;;;;;13.67;12.47;;;;;;;9.72;74.34;95616.56;4786648;29;20222;-84
2021/05/02 11:58:43;;;;;;;15.00;13.70;;;;;;;9.84;76.87;95611.81;4786460;29;20231;-82
2021/05/02 12:01:34;;;;;;;14.87;13.63;;;;;;;10.00;75.74;95615.09;4787060;29;20207;-85
2021/05/02 12:04:05;;;;;;;15.33;13.93;;;;;;;10.05;74.27;95612.00;4786784;29;20267;-82
2021/05/02 12:06:33;;;;;;;14.90;13.57;;;;;;;10.19;71.39;95608.72;4787105;30;20203;-85
2021/05/02 12:09:12;;;;;;;14.80;13.50;;;;;;;10.32;72.11;95615.84;4786839;30;20240;-85
2021/05/02 12:11:52;;;;;;;14.83;13.50;;;;;;;10.49;71.45;95608.78;4786155;29;20258;-84
2021/05/02 12:14:25;;;;;;;15.80;14.40;;;;;;;10.79;72.55;95607.81;4789385;29;20199;-85
2021/05/02 12:16:53;;;;;;;15.33;13.93;;;;;;;10.79;70.68;95604.44;4790356;29;20215;-84
2021/05/02 12:19:19;;;;;;;14.40;13.13;;;;;;;10.88;70.21;95611.91;4789709;30;20234;-82
2021/05/02 12:21:46;;;;;;;15.37;14.07;;;;;;;10.89;70.63;95612.72;4789235;29;20269;-82
2021/05/02 12:24:17;;;;;;;16.73;15.13;;;;;;;10.90;72.31;95604.00;4789264;30;20199;-82
2021/05/02 12:26:45;;;;;;;15.73;14.23;;;;;;;11.04;71.61;95600.63;4789243;29;20241;-83
2021/05/02 12:29:18;;;;;;;16.60;15.00;;;;;;;11.29;72.34;95589.06;4789762;29;20218;-83
2021/05/02 12:31:53;;;;;;;16.73;15.13;;;;;;;11.43;70.00;95590.00;4788173;30;20241;-83
2021/05/02 12:34:25;;;;;;;17.97;16.27;;;;;;;11.53;69.96;95587.94;4788349;30;20237;-80
2021/05/02 12:36:54;;;;;;;17.63;15.93;;;;;;;11.37;66.55;95588.94;4789198;30;20207;-81
2021/05/02 12:39:31;;;;;;;18.27;16.57;;;;;;;11.41;63.32;95591.97;4789544;30;20237;-83
2021/05/02 12:41:57;;;;;;;17.03;15.63;;;;;;;11.53;64.23;95589.72;4814175;29;20241;-82
2021/05/02 12:44:25;;;;;;;17.90;16.30;;;;;;;11.55;64.34;95587.75;4871563;29;20212;-83
2021/05/02 12:46:56;;;;;;;17.60;16.00;;;;;;;11.39;64.46;95592.13;4861864;29;20638;-80
2021/05/02 12:49:26;;;;;;;17.20;15.60;;;;;;;11.39;62.69;95581.81;4861453;29;20416;-82
2021/05/02 12:51:57;;;;;;;17.87;16.27;;;;;;;11.52;63.59;95580.38;4860889;29;20735;-83
2021/05/02 12:54:26;;;;;;;17.27;15.63;;;;;;;11.56;62.84;95574.66;4861580;29;20740;-83
2021/05/02 12:57:06;;;;;;;16.30;14.83;;;;;;;11.51;60.92;95578.78;4861602;29;20211;-81
2021/05/02 12:59:49;;;;;;;17.90;16.30;;;;;;;11.50;61.62;95574.63;4861052;29;20232;-84
2021/05/02 13:02:20;;;;;;;18.03;16.43;;;;;;;11.67;62.97;95578.56;4860886;29;20274;-83
2021/05/02 13:04:51;;;;;;;16.93;15.40;;;;;;;11.67;62.20;95576.78;4860886;29;20204;-84
2021/05/02 13:07:33;;;;;;;18.10;16.50;;;;;;;11.59;60.90;95576.09;4861154;29;20208;-82
2021/05/02 13:10:00;;;;;;;20.47;18.57;;;;;;;11.56;61.19;95569.50;4860689;29;20232;-82
2021/05/02 13:12:27;;;;;;;19.80;18.00;;;;;;;11.58;63.51;95571.91;4860157;29;20751;-84
2021/05/02 13:15:05;;;;;;;18.83;17.03;;;;;;;11.54;63.76;95581.00;4861436;29;20212;-84
2021/05/02 13:17:32;;;;;;;17.33;15.73;;;;;;;11.48;59.90;95564.47;4861016;29;20223;-81
2021/05/02 13:19:59;;;;;;;17.60;16.10;;;;;;;11.47;60.21;95570.63;4861242;29;20632;-84
2021/05/02 13:22:27;;;;;;;18.07;16.47;;;;;;;11.55;61.00;95567.91;4860204;29;20230;-84
2021/05/02 13:24:57;;;;;;;17.40;15.93;;;;;;;11.59;59.26;95565.78;4859734;29;20323;-85
2021/05/02 13:27:35;;;;;;;17.63;15.93;;;;;;;11.69;58.94;95561.94;4879254;29;20216;-84
2021/05/02 13:30:01;;;;;;;17.27;15.67;;;;;;;11.76;59.14;95565.38;4878882;29;20215;-83
2021/05/02 13:32:27;;;;;;;16.90;15.30;;;;;;;11.64;56.39;95566.03;4878078;29;20247;-84
2021/05/02 13:34:54;;;;;;;17.20;15.70;;;;;;;11.74;57.98;95567.31;4878884;29;20203;-82
2021/05/02 13:37:20;;;;;;;17.47;15.77;;;;;;;11.85;57.75;95565.28;4878714;29;20259;-82
2021/05/02 13:39:46;;;;;;;16.67;15.27;;;;;;;11.96;58.48;95562.97;4879029;29;20251;-82
2021/05/02 13:42:12;;;;;;;17.23;15.47;;;;;;;11.89;59.12;95572.47;4886329;29;20246;-79
2021/05/02 13:44:38;;;;;;;16.63;15.13;;;;;;;11.72;58.55;95569.31;4898089;29;20214;-80
2021/05/02 13:47:04;;;;;;;16.43;15.03;;;;;;;11.58;58.99;95564.16;4887243;29;20271;-81
2021/05/02 13:49:30;;;;;;;16.53;15.03;;;;;;;11.77;60.38;95558.44;4897709;29;20207;-80
2021/05/02 13:51:57;;;;;;;17.00;15.50;;;;;;;11.99;59.29;95556.66;4888792;29;20242;-80
2021/05/02 13:54:23;;;;;;;16.17;14.77;;;;;;;12.21;59.40;95554.84;4886264;29;20199;-82
2021/05/02 13:56:49;;;;;;;15.70;14.40;;;;;;;12.37;56.37;95546.81;4880907;29;20203;-81
2021/05/02 13:59:15;;;;;;;17.10;15.60;;;;;;;12.41;56.73;95546.28;4883149;29;20638;-81
2021/05/02 14:01:42;;;;;;;16.60;15.17;;;;;;;12.48;58.70;95554.06;4891060;29;20289;-80
2021/05/02 14:04:08;;;;;;;17.07;15.57;;;;;;;12.68;58.38;95549.81;4897757;29;20235;-81
2021/05/02 14:06:34;;;;;;;27.40;24.50;;;;;;;12.77;57.46;95556.41;4889623;29;20210;-78
2021/05/02 14:09:01;;;;;;;17.37;15.67;;;;;;;12.86;54.86;95545.94;4897480;29;20198;-80
2021/05/02 14:11:27;;;;;;;15.80;14.50;;;;;;;12.73;54.10;95555.19;4896589;29;20246;-83
2021/05/02 14:13:54;;;;;;;16.10;14.50;;;;;;;12.53;53.57;95558.66;4897478;29;20211;-83
2021/05/02 14:16:23;;;;;;;15.70;14.30;;;;;;;12.49;54.97;95547.91;4897296;29;20292;-82
2021/05/02 14:18:49;;;;;;;15.93;14.53;;;;;;;12.37;54.16;95557.16;4897675;29;20222;-82
2021/05/02 14:21:15;;;;;;;15.33;14.03;;;;;;;12.08;53.53;95560.72;4896999;29;20207;-82
2021/05/02 14:23:41;;;;;;;16.03;14.50;;;;;;;11.95;54.10;95558.00;4884927;29;20239;-83
2021/05/02 14:26:08;;;;;;;15.27;13.90;;;;;;;11.95;53.28;95566.53;4886800;29;20211;-81
2021/05/02 14:28:37;;;;;;;15.83;14.43;;;;;;;12.02;53.98;95558.88;4896664;29;20199;-80
2021/05/02 14:31:03;;;;;;;14.70;13.30;;;;;;;12.18;54.43;95556.03;4897137;29;20202;-82
2021/05/02 14:33:30;;;;;;;15.73;14.27;;;;;;;12.35;56.34;95553.97;4896123;29;20238;-81
2021/05/02 14:35:56;;;;;;;14.97;13.67;;;;;;;12.50;54.78;95556.47;4896262;29;20206;-83
2021/05/02 14:38:23;;;;;;;14.53;13.33;;;;;;;12.60;54.74;95562.06;4896968;29;20230;-80
2021/05/02 14:40:49;;;;;;;14.40;13.07;;;;;;;12.60;52.49;95555.13;4896221;29;20263;-82
2021/05/02 14:43:16;;;;;;;14.63;13.43;;;;;;;12.60;52.04;95547.38;4895098;29;20880;-83
2021/05/02 14:45:42;;;;;;;15.30;13.80;;;;;;;12.49;52.39;95552.28;4896797;29;20211;-84
2021/05/02 14:48:09;;;;;;;15.07;13.67;;;;;;;12.18;53.64;95550.84;4897166;29;20211;-83
2021/05/02 14:50:35;;;;;;;15.50;14.17;;;;;;;12.00;54.25;95560.84;4897770;29;20239;-84
2021/05/02 14:53:02;;;;;;;14.77;13.47;;;;;;;12.02;53.84;95553.72;4906799;29;20238;-84
2021/05/02 14:55:28;;;;;;;14.67;13.37;;;;;;;12.17;55.11;95556.22;4917102;29;20202;-81
2021/05/02 14:57:54;;;;;;;14.33;13.03;;;;;;;12.24;52.85;95570.78;4915494;29;20742;-83
2021/05/02 15:00:22;;;;;;;13.20;12.00;;;;;;;12.22;51.97;95556.44;4915727;29;20245;-83
2021/05/02 15:02:48;;;;;;;12.20;11.10;;;;;;;12.26;51.96;95561.06;4914078;29;20226;-80
2021/05/02 15:05:14;;;;;;;11.53;10.53;;;;;;;12.25;51.23;95556.09;4915672;29;20217;-84
2021/05/02 15:07:43;;;;;;;11.20;10.30;;;;;;;12.29;51.23;95565.84;4915705;29;20206;-84
2021/05/02 15:10:12;;;;;;;11.10;10.13;;;;;;;12.26;50.25;95563.63;4913625;29;20788;-84
2021/05/02 15:12:39;;;;;;;11.53;10.33;;;;;;;12.26;51.04;95560.25;4913079;29;20219;-84
2021/05/02 15:15:07;;;;;;;10.33;9.43;;;;;;;12.27;51.09;95554.13;4915049;29;20210;-83
2021/05/02 15:17:35;;;;;;;11.57;10.47;;;;;;;12.25;52.01;95561.25;4913596;29;20272;-84
2021/05/02 15:20:05;;;;;;;11.93;10.83;;;;;;;12.21;51.22;95562.59;4897803;29;20574;-84
2021/05/02 15:22:32;;;;;;;11.43;10.43;;;;;;;12.24;52.31;95565.59;4912339;29;20632;-83
2021/05/02 15:24:58;;;;;;;12.83;11.63;;;;;;;12.27;53.20;95565.25;4899327;29;20282;-84
2021/05/02 15:27:24;;;;;;;15.43;14.00;;;;;;;12.34;54.89;95570.44;4909305;29;20216;-84
2021/05/02 15:29:50;;;;;;;13.83;12.53;;;;;;;12.41;55.87;95563.53;4915572;29;20206;-83
2021/05/02 15:32:16;;;;;;;14.13;12.93;;;;;;;12.58;55.67;95571.78;4913916;29;20229;-83
2021/05/02 15:34:43;;;;;;;14.33;13.03;;;;;;;12.47;57.57;95567.97;4900521;29;20206;-84
2021/05/02 15:37:10;;;;;;;15.10;13.80;;;;;;;12.43;57.72;95562.38;4908623;29;20675;-83
2021/05/02 15:42:55;;;;;;;14.60;13.20;;;;;;;12.64;57.87;95561.53;4860799;29;20263;-85
2021/05/02 15:45:30;;;;;;;13.10;12.00;;;;;;;12.69;56.06;95576.47;4882983;29;20231;-85
2021/05/02 15:47:59;;;;;;;13.47;12.20;;;;;;;12.62;53.31;95566.06;4879534;29;20213;-84
2021/05/02 15:50:26;;;;;;;12.87;11.77;;;;;;;12.71;54.36;95572.66;4884959;29;20218;-84
2021/05/02 15:52:52;;;;;;;12.87;11.77;;;;;;;12.55;54.92;95572.97;4881894;29;20230;-84
2021/05/02 15:55:24;;;;;;;13.57;12.37;;;;;;;12.54;55.36;95583.47;4882280;29;20736;-85
2021/05/02 15:57:54;;;;;;;11.57;10.67;;;;;;;12.51;52.46;95587.25;4883463;29;20214;-85
2021/05/02 16:00:31;;;;;;;12.63;11.17;;;;;;;12.45;52.45;95578.47;4900324;29;20266;-85
2021/05/02 16:03:13;;;;;;;16.90;15.30;;;;;;;12.38;52.78;95579.41;4896690;29;20218;-85
2021/05/02 16:05:43;;;;;;;13.87;12.67;;;;;;;12.27;52.39;95575.56;4881821;29;20226;-83
2021/05/02 16:08:18;;;;;;;10.67;9.60;;;;;;;12.25;51.59;95584.47;4892857;29;20603;-83
2021/05/02 16:10:49;;;;;;;10.90;10.00;;;;;;;12.26;52.35;95589.44;4899222;29;20313;-83
2021/05/02 16:13:26;;;;;;;10.67;9.77;;;;;;;12.22;52.13;95584.84;4897967;29;20223;-83
2021/05/02 16:15:56;;;;;;;10.00;9.10;;;;;;;12.18;51.28;95591.34;4900319;29;20221;-84
2021/05/02 16:18:25;;;;;;;10.60;9.70;;;;;;;12.05;51.09;95595.44;4893831;29;20231;-82
2021/05/02 16:20:52;;;;;;;10.83;9.90;;;;;;;11.90;51.90;95630.81;4881178;29;20247;-83
2021/05/02 16:23:18;;;;;;;11.83;10.83;;;;;;;11.71;55.58;95652.81;4884806;29;20233;-84
2021/05/02 16:25:59;;;;;;;12.10;11.00;;;;;;;11.22;60.00;95662.09;4881750;29;20233;-84
2021/05/02 16:28:37;;;;;;;12.90;11.73;;;;;;;10.76;63.87;95676.94;4881947;29;20203;-83
2021/05/02 16:31:06;;;;;;;11.73;10.80;;;;;;;10.51;64.29;95687.44;4880668;29;20207;-82
2021/05/02 16:33:36;;;;;;;12.57;11.47;;;;;;;10.13;67.43;95670.31;4887458;29;20223;-83
2021/05/02 16:36:14;;;;;;;10.83;9.93;;;;;;;10.15;65.75;95684.63;4900115;29;20207;-83
2021/05/02 16:38:51;;;;;;;12.03;11.03;;;;;;;10.04;66.66;95685.78;4891412;29;20220;-83
2021/05/02 16:41:17;;;;;;;13.13;12.00;;;;;;;9.89;70.39;95679.78;4882006;29;20211;-83
2021/05/02 16:43:43;;;;;;;14.00;12.80;;;;;;;9.72;71.66;95677.47;4888195;29;20223;-83
2021/05/02 16:46:09;;;;;;;13.23;12.00;;;;;;;9.62;71.76;95677.69;4900846;29;20214;-84
2021/05/02 16:48:35;;;;;;;13.93;12.73;;;;;;;9.43;73.90;95683.22;4895161;29;20196;-83
2021/05/02 16:51:13;;;;;;;13.17;11.97;;;;;;;9.52;72.33;95672.75;4881437;29;20211;-83
2021/05/02 16:53:40;;;;;;;14.67;13.30;;;;;;;9.46;73.83;95677.72;4883124;29;20231;-83
2021/05/02 16:56:06;;;;;;;14.23;13.00;;;;;;;9.31;74.90;95678.44;4881770;29;20215;-84
2021/05/02 16:58:33;;;;;;;15.73;14.33;;;;;;;9.32;75.98;95674.91;4881141;29;20253;-83
2021/05/02 17:00:58;;;;;;;14.57;13.27;;;;;;;9.40;75.75;95668.16;4880822;29;20200;-83
2021/05/02 17:03:25;;;;;;;15.43;13.97;;;;;;;9.45;76.14;95674.38;4885919;29;20223;-83
2021/05/02 17:05:51;;;;;;;14.90;13.50;;;;;;;9.48;75.27;95675.81;4899284;29;20596;-83
2021/05/02 17:08:17;;;;;;;14.53;13.13;;;;;;;9.68;74.53;95680.38;4892180;29;20674;-83
2021/05/02 17:10:44;;;;;;;32.90;29.63;;;;;;;9.77;73.33;95672.63;4910854;29;20594;-83
2021/05/02 17:13:10;;;;;;;19.60;17.70;;;;;;;9.83;74.15;95688.16;4901504;29;20876;-83
2021/05/02 17:15:36;;;;;;;14.63;13.33;;;;;;;9.95;71.61;95681.69;4898550;29;20206;-83
2021/05/02 17:18:02;;;;;;;14.37;13.07;;;;;;;10.00;70.96;95683.75;4893545;29;20199;-82
2021/05/02 17:20:29;;;;;;;13.40;12.30;;;;;;;10.03;70.37;95673.91;4899859;29;20286;-83
2021/05/02 17:22:56;;;;;;;12.47;11.30;;;;;;;10.07;68.99;95669.22;4886319;29;20218;-83
2021/05/02 17:25:22;;;;;;;12.27;11.27;;;;;;;10.07;69.38;95666.66;4890858;29;20203;-84
2021/05/02 17:27:49;;;;;;;11.67;10.67;;;;;;;10.05;69.14;95669.38;4881828;29;20203;-83
2021/05/02 17:30:16;;;;;;;11.37;10.37;;;;;;;10.08;69.06;95667.44;4881622;29;20723;-84
2021/05/02 17:32:42;;;;;;;11.50;10.50;;;;;;;10.07;69.09;95660.69;4898261;29;20368;-83
2021/05/02 17:35:10;;;;;;;11.73;10.73;;;;;;;10.04;69.37;95669.56;4898092;29;20207;-83
2021/05/02 17:37:36;;;;;;;12.73;11.60;;;;;;;10.09;69.68;95676.75;4880484;29;20212;-83
2021/05/02 17:40:02;;;;;;;11.20;10.23;;;;;;;10.03;69.28;95680.81;4896339;29;20705;-83
2021/05/02 17:42:28;;;;;;;11.60;10.50;;;;;;;10.00;68.82;95673.47;4891565;29;20258;-82
2021/05/02 17:44:55;;;;;;;11.43;10.53;;;;;;;10.00;68.88;95684.56;4899010;29;20210;-83
2021/05/02 17:47:21;;;;;;;13.30;12.10;;;;;;;10.10;69.03;95688.66;4899492;29;20207;-83
2021/05/02 17:49:47;;;;;;;12.80;11.70;;;;;;;10.08;69.06;95693.97;4884119;29;20219;-83
2021/05/02 17:52:13;;;;;;;11.40;10.40;;;;;;;9.92;69.38;95684.59;4879859;29;20230;-83
2021/05/02 17:54:39;;;;;;;12.03;11.00;;;;;;;9.90;69.96;95690.88;4893902;29;20214;-84
2021/05/02 17:57:06;;;;;;;12.20;11.10;;;;;;;9.83;70.51;95688.16;4884085;29;20200;-84
2021/05/02 17:59:31;;;;;;;12.57;11.47;;;;;;;9.86;69.99;95692.16;4892858;29;20245;-83
2021/05/02 18:01:59;;;;;;;11.30;10.40;;;;;;;9.80;69.84;95698.00;4898328;29;20234;-84
2021/05/02 18:04:25;;;;;;;11.73;10.73;;;;;;;9.82;69.91;95704.56;4886385;29;20239;-83
2021/05/02 18:06:51;;;;;;;12.07;10.90;;;;;;;9.76;70.23;95702.69;4880441;29;20690;-84
2021/05/02 18:09:19;;;;;;;12.33;11.23;;;;;;;9.72;70.23;95695.47;4885414;29;20208;-83
2021/05/02 18:11:45;;;;;;;10.97;10.07;;;;;;;9.75;69.69;95702.84;4891378;29;20262;-82
2021/05/02 18:14:11;;;;;;;12.17;11.07;;;;;;;9.79;70.53;95711.84;4897349;29;20697;-83
2021/05/02 18:16:37;;;;;;;11.70;10.80;;;;;;;9.84;70.18;95705.19;4887299;29;20239;-83
2021/05/02 18:19:04;;;;;;;12.50;11.43;;;;;;;9.88;70.16;95709.03;4896884;29;20339;-83
2021/05/02 18:21:30;;;;;;;12.40;11.40;;;;;;;9.89;70.70;95712.41;4899149;29;20207;-83
2021/05/02 18:23:58;;;;;;;11.63;10.63;;;;;;;9.91;70.40;95719.00;4897540;29;20658;-83
2021/05/02 18:26:24;;;;;;;11.93;10.93;;;;;;;9.92;70.27;95722.38;4898555;29;20203;-83
2021/05/02 18:28:51;;;;;;;11.63;10.53;;;;;;;9.88;70.45;95721.91;4899305;29;20365;-83
2021/05/02 18:31:17;;;;;;;11.97;10.97;;;;;;;9.84;70.70;95723.19;4889961;29;20553;-82
2021/05/02 18:33:44;;;;;;;11.30;10.40;;;;;;;9.83;70.72;95725.94;4890260;29;20279;-83
2021/05/02 18:36:11;;;;;;;10.80;9.87;;;;;;;9.80;70.39;95741.72;4887002;29;20206;-82
2021/05/02 18:38:37;;;;;;;10.00;9.20;;;;;;;9.76;70.58;95743.03;4893835;29;20230;-83
2021/05/02 18:41:03;;;;;;;10.50;9.50;;;;;;;9.72;70.70;95742.53;4885805;29;20208;-83
2021/05/02 18:43:30;;;;;;;10.70;9.70;;;;;;;9.64;71.22;95735.66;4896153;29;20609;-82
2021/05/02 18:46:03;;;;;;;9.83;9.03;;;;;;;9.59;70.87;95745.66;4892970;29;20215;-81
2021/05/02 18:48:29;;;;;;;9.73;8.87;;;;;;;9.62;71.19;95735.00;4887249;29;20204;-83
2021/05/02 18:50:55;;;;;;;10.00;9.10;;;;;;;9.50;70.75;95736.34;4887754;29;20220;-83
2021/05/02 18:53:22;;;;;;;9.50;8.70;;;;;;;9.57;70.52;95744.22;4887779;29;20242;-83
2021/05/02 18:55:48;;;;;;;9.43;8.60;;;;;;;9.55;71.70;95752.09;4893051;29;20203;-81
2021/05/02 18:58:14;;;;;;;10.10;9.10;;;;;;;9.62;70.93;95757.38;4896809;29;20227;-82
2021/05/02 19:00:41;;;;;;;10.23;9.33;;;;;;;9.58;71.65;95759.47;4879199;29;20207;-82
2021/05/02 19:03:07;;;;;;;9.13;8.43;;;;;;;9.56;71.47;95769.13;4883974;29;20736;-82
2021/05/02 19:05:33;;;;;;;15.83;14.37;;;;;;;9.53;71.85;95774.59;4892930;29;20196;-83
2021/05/02 19:07:59;;;;;;;15.67;14.07;;;;;;;9.54;71.60;95772.81;4888597;29;20231;-82
2021/05/02 19:10:26;;;;;;;11.73;10.63;;;;;;;9.54;71.41;95767.69;4879458;29;20241;-82
2021/05/02 19:12:52;;;;;;;10.57;9.67;;;;;;;9.54;71.26;95777.97;4879425;29;20256;-83
2021/05/02 19:15:18;;;;;;;11.07;10.13;;;;;;;9.54;71.12;95777.97;4879278;29;20302;-82
2021/05/02 19:17:44;;;;;;;10.40;9.50;;;;;;;9.55;71.34;95780.38;4884508;29;20218;-82
2021/05/02 19:20:11;;;;;;;10.50;9.60;;;;;;;9.56;70.97;95792.25;4890259;29;20224;-81
2021/05/02 19:22:37;;;;;;;10.60;9.70;;;;;;;9.54;70.84;95793.38;4885049;29;20231;-79
2021/05/02 19:25:05;;;;;;;10.77;9.80;;;;;;;9.53;71.44;95794.34;4893346;29;20203;-79
2021/05/02 19:27:32;;;;;;;10.90;9.90;;;;;;;9.50;70.91;95798.03;4899163;29;20199;-82
2021/05/02 19:29:58;;;;;;;10.63;9.73;;;;;;;9.47;71.21;95800.13;4883662;29;20675;-81
2021/05/02 19:32:24;;;;;;;11.13;10.13;;;;;;;9.47;71.53;95797.56;4890503;29;20219;-83
2021/05/02 19:34:50;;;;;;;11.00;10.00;;;;;;;9.45;71.55;95805.44;4883345;29;20210;-82
2021/05/02 19:37:17;;;;;;;11.03;10.03;;;;;;;9.39;71.88;95813.81;4892222;29;20210;-82
2021/05/02 19:39:43;;;;;;;11.37;10.37;;;;;;;9.41;71.84;95814.47;4901699;29;20604;-82
2021/05/02 19:42:09;;;;;;;10.83;9.93;;;;;;;9.44;71.68;95805.59;4892692;29;20235;-80
2021/05/02 19:44:36;;;;;;;11.03;10.03;;;;;;;9.38;71.21;95813.97;4900866;29;20274;-79
2021/05/02 19:47:02;;;;;;;11.07;10.07;;;;;;;9.37;71.51;95823.44;4893731;29;20841;-82
2021/05/02 19:49:28;;;;;;;10.90;10.00;;;;;;;9.35;71.95;95821.03;4881987;29;20272;-82
2021/05/02 19:51:55;;;;;;;10.43;9.53;;;;;;;9.30;71.68;95817.34;4889082;29;20239;-79
2021/05/02 19:54:21;;;;;;;11.43;10.33;;;;;;;9.32;71.97;95823.94;4898604;29;20226;-83
2021/05/02 19:56:47;;;;;;;10.60;9.60;;;;;;;9.31;72.11;95817.19;4897346;29;20203;-80
2021/05/02 19:59:13;;;;;;;10.47;9.57;;;;;;;9.21;71.83;95826.84;4881670;29;20303;-80
2021/05/02 20:01:41;;;;;;;10.30;9.40;;;;;;;9.20;72.19;95825.25;4885084;29;20196;-81
2021/05/02 20:04:07;;;;;;;11.77;10.77;;;;;;;9.18;71.42;95827.16;4880834;29;20218;-82
2021/05/02 20:06:33;;;;;;;12.60;11.40;;;;;;;9.15;72.36;95824.91;4897650;29;20258;-83
2021/05/02 20:08:59;;;;;;;10.57;9.60;;;;;;;9.17;72.64;95828.13;4884888;29;20220;-83
2021/05/02 20:11:25;;;;;;;10.00;9.10;;;;;;;9.11;72.28;95825.41;4888999;29;20230;-83
2021/05/02 20:16:33;;;;;;;9.80;8.90;;;;;;;9.03;72.52;95825.41;4878656;29;20219;-83
2021/05/02 20:19:01;;;;;;;10.33;9.33;;;;;;;9.03;72.64;95833.91;4882041;29;20695;-83
2021/05/02 20:21:27;;;;;;;9.60;8.70;;;;;;;8.97;72.67;95831.97;4895612;29;20261;-82
2021/05/02 20:23:53;;;;;;;10.20;9.30;;;;;;;8.96;73.21;95826.03;4896513;29;20231;-82
2021/05/02 20:26:19;;;;;;;10.17;9.37;;;;;;;8.99;72.69;95832.63;4896361;29;20235;-81
2021/05/02 20:28:45;;;;;;;10.53;9.63;;;;;;;8.94;72.85;95833.09;4898619;29;20710;-81
2021/05/02 20:31:11;;;;;;;10.57;9.67;;;;;;;8.98;72.50;95833.59;4899343;29;20367;-81
2021/05/02 20:33:40;;;;;;;10.40;9.50;;;;;;;8.98;72.41;95829.25;4897831;29;20235;-83
2021/05/02 20:36:09;;;;;;;10.43;9.53;;;;;;;8.93;72.73;95823.78;4898405;29;20206;-81
2021/05/02 20:38:39;;;;;;;10.80;9.90;;;;;;;8.87;72.80;95839.03;4899559;29;20830;-82
2021/05/02 20:41:08;;;;;;;11.53;10.43;;;;;;;8.79;73.10;95837.28;4881582;29;20278;-82
2021/05/02 20:43:35;;;;;;;11.17;10.27;;;;;;;8.83;73.05;95837.75;4880052;29;20224;-81
2021/05/02 20:46:01;;;;;;;10.63;9.73;;;;;;;8.84;73.08;95831.66;4863228;29;551566;-81
2021/05/02 20:48:34;;;;;;;10.70;9.80;;;;;;;8.82;73.22;95846.41;4882613;29;20198;-82
2021/05/02 20:51:00;;;;;;;9.97;9.17;;;;;;;8.83;73.33;95845.47;4887357;29;20207;-83
2021/05/02 20:53:27;;;;;;;10.27;9.37;;;;;;;8.90;72.54;95847.22;4894118;29;20219;-81
2021/05/02 20:55:53;;;;;;;11.20;10.13;;;;;;;8.95;72.84;95852.69;4898353;29;20203;-82
2021/05/02 20:58:19;;;;;;;10.50;9.60;;;;;;;9.02;72.73;95849.47;4895048;29;20207;-83
2021/05/02 21:00:46;;;;;;;10.77;9.77;;;;;;;8.98;72.55;95854.94;4883155;29;20267;-82
2021/05/02 21:03:12;;;;;;;10.20;9.20;;;;;;;8.96;72.47;95856.84;4900899;29;20223;-79
2021/05/02 21:05:38;;;;;;;10.30;9.40;;;;;;;9.00;72.05;95858.16;4901187;29;20310;-79
2021/05/02 21:08:05;;;;;;;9.67;8.87;;;;;;;8.96;72.30;95871.47;4889501;29;20202;-82
2021/05/02 21:10:32;;;;;;;10.30;9.40;;;;;;;8.95;72.48;95867.28;4895399;29;20231;-82
2021/05/02 21:12:58;;;;;;;9.80;8.90;;;;;;;8.94;72.67;95863.13;4881055;29;20718;-80
2021/05/02 21:15:23;;;;;;;9.83;8.97;;;;;;;8.87;72.28;95865.50;4884054;29;20392;-81
2021/05/02 21:17:49;;;;;;;8.80;8.03;;;;;;;8.94;72.00;95870.81;4898571;29;20213;-81
2021/05/02 21:20:15;;;;;;;9.83;8.93;;;;;;;8.97;72.34;95875.63;4881575;29;20283;-82
2021/05/02 21:22:42;;;;;;;9.67;8.77;;;;;;;8.98;71.83;95880.63;4884158;29;20222;-80
2021/05/02 21:25:10;;;;;;;9.43;8.63;;;;;;;8.99;71.63;95877.09;4900049;29;20203;-80
2021/05/02 21:27:37;;;;;;;9.17;8.43;;;;;;;8.96;71.59;95881.72;4898247;29;20202;-80
2021/05/02 21:30:04;;;;;;;9.63;8.83;;;;;;;9.00;71.84;95880.47;4899946;29;20207;-81
2021/05/02 21:32:30;;;;;;;9.47;8.40;;;;;;;9.01;71.75;95884.63;4897840;29;20233;-83
2021/05/02 21:34:56;;;;;;;9.83;8.83;;;;;;;8.93;72.28;95898.25;4884034;29;20205;-81
2021/05/02 21:37:22;;;;;;;9.33;8.53;;;;;;;8.96;71.49;95887.66;4899235;29;20262;-80
2021/05/02 21:39:48;;;;;;;10.10;8.70;;;;;;;8.95;71.39;95893.78;4881387;29;20231;-79
2021/05/02 21:42:16;;;;;;;9.30;8.50;;;;;;;8.87;72.18;95898.06;4880896;29;20234;-80
2021/05/02 21:44:47;;;;;;;9.13;8.33;;;;;;;8.92;71.92;95903.56;4899336;29;20218;-82
2021/05/02 21:47:13;;;;;;;9.17;8.37;;;;;;;8.95;72.23;95910.94;4895835;29;20680;-81
2021/05/02 21:49:39;;;;;;;8.97;8.27;;;;;;;8.98;72.17;95908.06;4881278;29;20209;-80
2021/05/02 21:52:06;;;;;;;9.47;8.57;;;;;;;8.98;72.03;95910.63;4892970;29;20230;-80
2021/05/02 21:54:32;;;;;;;9.23;8.43;;;;;;;9.00;72.38;95908.72;4880775;29;20300;-83
2021/05/02 21:56:58;;;;;;;9.10;8.20;;;;;;;8.98;71.88;95908.06;4880942;29;20211;-79
2021/05/02 21:59:25;;;;;;;8.87;8.17;;;;;;;8.92;72.12;95906.91;4882392;29;20282;-79
2021/05/02 22:01:53;;;;;;;9.27;8.47;;;;;;;8.94;72.37;95912.72;4899158;29;20221;-79
2021/05/02 22:04:20;;;;;;;9.33;8.53;;;;;;;8.99;72.31;95917.38;4896686;29;20666;-80
2021/05/02 22:06:46;;;;;;;9.07;8.27;;;;;;;9.04;72.54;95924.63;4899766;29;20694;-79
2021/05/02 22:09:12;;;;;;;9.40;8.60;;;;;;;8.98;72.28;95919.13;4897048;29;20206;-80
2021/05/02 22:11:38;;;;;;;9.10;8.30;;;;;;;8.95;72.54;95924.59;4897633;29;20230;-82
2021/05/02 22:14:05;;;;;;;9.40;8.63;;;;;;;9.01;72.23;95933.44;4897605;29;20297;-80
2021/05/02 22:16:31;;;;;;;9.47;8.67;;;;;;;8.96;72.59;95927.97;4884339;29;20228;-80
2021/05/02 22:18:58;;;;;;;9.70;8.90;;;;;;;8.94;72.89;95928.13;4895483;29;20241;-80
2021/05/02 22:21:24;;;;;;;9.27;8.37;;;;;;;8.97;72.76;95930.38;4885106;29;20215;-81
2021/05/02 22:23:53;;;;;;;9.30;8.50;;;;;;;8.92;72.90;95940.31;4879524;29;20978;-81
2021/05/02 22:26:20;;;;;;;8.93;8.13;;;;;;;8.98;72.94;95941.44;4899048;29;20745;-79
2021/05/02 22:28:47;;;;;;;9.13;8.33;;;;;;;8.96;73.56;95943.38;4883777;29;20259;-81
2021/05/02 22:31:15;;;;;;;8.83;8.13;;;;;;;8.90;73.33;95941.41;4879403;29;20211;-80
2021/05/02 22:33:41;;;;;;;8.80;8.00;;;;;;;8.91;73.11;95943.03;4891748;29;20233;-79
2021/05/02 22:36:10;;;;;;;9.33;8.47;;;;;;;8.89;73.28;95945.75;4897766;29;20207;-78
2021/05/02 22:38:39;;;;;;;9.13;8.37;;;;;;;8.91;73.10;95953.31;4891319;29;20230;-79
2021/05/02 22:41:07;;;;;;;8.97;8.27;;;;;;;8.89;72.77;95952.66;4898059;29;20203;-80
2021/05/02 22:43:33;;;;;;;9.37;8.57;;;;;;;8.89;73.17;95956.03;4892774;29;20227;-82
2021/05/02 22:45:59;;;;;;;9.23;8.33;;;;;;;8.95;72.43;95955.41;4898348;29;20211;-82
2021/05/02 22:48:25;;;;;;;8.50;7.80;;;;;;;8.98;72.14;95955.09;4897185;29;20206;-81
2021/05/02 22:50:51;;;;;;;9.17;8.37;;;;;;;8.89;73.12;95948.31;4884213;29;20298;-80
2021/05/02 22:53:18;;;;;;;8.57;7.77;;;;;;;8.90;72.41;95949.94;4882186;29;20231;-78
2021/05/02 22:55:46;;;;;;;8.67;7.97;;;;;;;8.90;72.60;95951.69;4879073;29;20922;-81
2021/05/02 22:58:14;;;;;;;8.00;7.33;;;;;;;8.83;71.87;95950.72;4891928;29;20274;-81
2021/05/02 23:00:44;;;;;;;7.57;6.87;;;;;;;8.86;72.01;95952.97;4896971;29;20258;-80